Copiague, New York
Current Conditions -  °F | °C
As of 11:35 AM on Monday 26 Jan 2015 (Local Time) from KFRG Reporting Station
Light Snow Light Snow  
Wind Chill: 11°   Ceiling: 1900
Heat Index: 24°   Visibility: 2.5mi
Dew Point: 18°   Wind: 15mph
Humidity: 77%   Direction: 40°NE
Pressure: 29.95"   Gusts: 26mph
Location:  40.69°N, 73.4°W
Report Text: KFRG 261635Z 04013G23KT 2 1/2SM -SN OVC019 M04/M08 A2995 RMK AO2 P0000 T10441078
Loading
Personal Weather Stations






























Interactive Weather Map New forecast layout! Learn more

10-Day Weather Forecast

Advertisements
Track Severe Weather on mobile